createdAt,value
2023-02-23T00:00:28.185Z,9.10
2023-02-23T00:02:50.341Z,9.14
2023-02-23T00:05:11.973Z,9.14
2023-02-23T00:07:34.152Z,9.21
2023-02-23T00:09:56.981Z,9.19
2023-02-23T00:12:20.694Z,8.86
2023-02-23T00:14:42.154Z,8.89
2023-02-23T00:17:03.674Z,8.81
2023-02-23T00:19:25.350Z,8.82
2023-02-23T00:21:46.838Z,8.90
2023-02-23T00:24:10.943Z,8.81
2023-02-23T00:26:35.239Z,8.90
2023-02-23T00:28:57.880Z,8.97
2023-02-23T00:31:25.399Z,8.68
2023-02-23T00:33:46.870Z,8.81
2023-02-23T00:36:13.857Z,8.82
2023-02-23T00:38:36.449Z,8.87
2023-02-23T00:40:57.892Z,8.80
2023-02-23T00:43:20.098Z,8.62
2023-02-23T00:45:41.843Z,8.61
2023-02-23T00:48:03.833Z,8.67
2023-02-23T00:50:25.698Z,8.72
2023-02-23T00:52:47.149Z,8.58
2023-02-23T00:55:11.605Z,8.52
2023-02-23T00:57:33.557Z,8.66
2023-02-23T00:59:55.017Z,8.63
2023-02-23T01:02:16.492Z,8.43
2023-02-23T01:04:38.008Z,8.45
2023-02-23T01:06:59.416Z,8.48
2023-02-23T01:09:28.049Z,8.38
2023-02-23T01:11:49.539Z,8.44
2023-02-23T01:14:11.090Z,8.41
2023-02-23T01:16:34.412Z,8.34
2023-02-23T01:18:58.066Z,8.43
2023-02-23T01:21:25.451Z,8.24
2023-02-23T01:23:47.758Z,8.28
2023-02-23T01:26:15.942Z,8.29
2023-02-23T01:28:37.371Z,8.33
2023-02-23T01:30:58.998Z,8.20
2023-02-23T01:33:20.529Z,8.23
2023-02-23T01:35:43.636Z,8.24
2023-02-23T01:38:05.263Z,8.25
2023-02-23T01:40:30.283Z,8.21
2023-02-23T01:42:52.130Z,8.25
2023-02-23T01:45:26.163Z,8.01
2023-02-23T01:47:48.025Z,8.05
2023-02-23T01:50:11.817Z,8.08
2023-02-23T01:52:37.013Z,7.84
2023-02-23T01:54:58.499Z,7.91
2023-02-23T01:57:22.327Z,7.95
2023-02-23T01:59:47.435Z,8.08
2023-02-23T02:02:09.466Z,8.14
2023-02-23T02:04:38.186Z,7.96
2023-02-23T02:07:03.707Z,7.92
2023-02-23T02:09:25.697Z,7.89
2023-02-23T02:11:54.099Z,7.91
2023-02-23T02:14:29.490Z,7.77
2023-02-23T02:17:14.496Z,7.80
2023-02-23T02:19:44.841Z,7.73
2023-02-23T02:22:34.385Z,7.82
2023-02-23T02:25:19.644Z,7.87
2023-02-23T02:28:08.902Z,7.99
2023-02-23T02:30:48.832Z,7.82
2023-02-23T02:33:47.655Z,7.83
2023-02-23T02:36:21.699Z,7.73
2023-02-23T02:38:53.829Z,7.84
2023-02-23T02:41:53.399Z,7.83
2023-02-23T02:44:27.499Z,7.93
2023-02-23T02:46:57.965Z,7.89
2023-02-23T02:49:45.350Z,7.97
2023-02-23T02:52:29.458Z,7.68
2023-02-23T02:54:58.383Z,7.78
2023-02-23T02:57:22.608Z,7.80
2023-02-23T03:00:05.376Z,7.80
2023-02-23T03:02:45.260Z,7.77
2023-02-23T03:05:32.917Z,7.79
2023-02-23T03:08:32.204Z,7.80
2023-02-23T03:11:21.997Z,7.81
2023-02-23T03:14:11.553Z,7.88
2023-02-23T03:17:20.202Z,7.91
2023-02-23T03:20:12.889Z,7.90
2023-02-23T03:23:01.089Z,7.75
2023-02-23T03:25:51.746Z,7.77
2023-02-23T03:28:45.205Z,7.63
2023-02-23T03:31:45.957Z,7.70
2023-02-23T03:34:34.884Z,7.59
2023-02-23T03:37:29.723Z,7.59
2023-02-23T03:40:21.429Z,7.54
2023-02-23T03:43:02.953Z,7.65
2023-02-23T03:45:44.942Z,7.69
2023-02-23T03:48:28.747Z,7.78
2023-02-23T03:51:13.569Z,7.73
2023-02-23T03:54:15.655Z,7.83
2023-02-23T03:57:00.855Z,7.92
2023-02-23T03:59:45.412Z,8.03
2023-02-23T04:02:27.729Z,8.05
2023-02-23T04:05:08.739Z,7.93
2023-02-23T04:07:49.878Z,7.89
2023-02-23T04:10:30.155Z,7.93
2023-02-23T04:13:16.178Z,7.99
2023-02-23T04:15:41.213Z,8.06
2023-02-23T04:18:07.074Z,7.75
2023-02-23T04:20:28.800Z,7.89
2023-02-23T04:22:50.358Z,7.93
2023-02-23T04:25:16.130Z,7.84
2023-02-23T04:27:38.928Z,7.92
2023-02-23T04:30:00.583Z,7.99
2023-02-23T04:32:22.235Z,7.96
2023-02-23T04:34:44.939Z,8.00
2023-02-23T04:37:06.415Z,8.00
2023-02-23T04:39:29.073Z,8.08
2023-02-23T04:41:50.690Z,8.06
2023-02-23T04:44:12.227Z,8.11
2023-02-23T04:46:33.764Z,8.15
2023-02-23T04:48:55.169Z,8.06
2023-02-23T04:51:16.936Z,8.15
2023-02-23T04:53:39.373Z,8.22
2023-02-23T04:56:00.853Z,8.07
2023-02-23T04:58:22.321Z,8.08
2023-02-23T05:00:43.962Z,8.15
2023-02-23T05:03:05.587Z,8.22
2023-02-23T05:05:27.064Z,8.28
2023-02-23T05:07:48.586Z,8.28
2023-02-23T05:10:11.299Z,8.34
2023-02-23T05:12:32.922Z,8.41
2023-02-23T05:14:54.358Z,8.28
2023-02-23T05:17:15.858Z,8.32
2023-02-23T05:19:37.954Z,8.40
2023-02-23T05:21:59.421Z,8.43
2023-02-23T05:24:20.880Z,8.48
2023-02-23T05:26:42.359Z,8.54
2023-02-23T05:29:04.036Z,8.52
2023-02-23T05:31:26.594Z,8.53
2023-02-23T05:33:48.177Z,8.61
2023-02-23T05:36:16.677Z,8.64
2023-02-23T05:38:39.580Z,8.59
2023-02-23T05:41:05.136Z,8.50
2023-02-23T05:43:26.918Z,8.51
2023-02-23T05:45:48.385Z,8.52
2023-02-23T05:48:11.123Z,8.59
2023-02-23T05:50:32.613Z,8.60
2023-02-23T05:52:54.075Z,8.62
2023-02-23T05:55:15.580Z,8.65
2023-02-23T05:57:37.491Z,8.66
2023-02-23T05:59:58.917Z,8.66
2023-02-23T06:02:20.365Z,8.69
2023-02-23T06:04:42.068Z,8.67
2023-02-23T06:07:03.517Z,8.72
2023-02-23T06:09:25.185Z,8.78
2023-02-23T06:11:46.632Z,8.77
2023-02-23T06:14:08.069Z,8.77
2023-02-23T06:16:29.650Z,8.82
2023-02-23T06:18:51.167Z,8.87
2023-02-23T06:21:12.735Z,8.90
2023-02-23T06:23:34.314Z,8.93
2023-02-23T06:25:56.222Z,8.95
2023-02-23T06:28:17.689Z,8.94
2023-02-23T06:30:39.796Z,8.88
2023-02-23T06:33:01.583Z,9.00
2023-02-23T06:35:24.210Z,9.01
2023-02-23T06:37:45.697Z,8.77
2023-02-23T06:40:07.680Z,8.89
2023-02-23T06:42:29.113Z,8.92
2023-02-23T06:44:50.666Z,9.04
2023-02-23T06:47:12.164Z,9.09
2023-02-23T06:49:33.747Z,9.20
2023-02-23T06:51:55.334Z,9.21
2023-02-23T06:54:16.776Z,9.22
2023-02-23T06:56:38.202Z,9.28
2023-02-23T06:58:59.648Z,9.36
2023-02-23T07:01:21.357Z,9.42
2023-02-23T07:03:42.956Z,9.48
2023-02-23T07:06:05.766Z,9.54
2023-02-23T07:08:27.290Z,9.53
2023-02-23T07:10:48.838Z,9.55
2023-02-23T07:13:10.402Z,9.59
2023-02-23T07:15:31.822Z,9.63
2023-02-23T07:17:53.281Z,9.59
2023-02-23T07:20:17.809Z,9.54
2023-02-23T07:22:40.070Z,9.59
2023-02-23T07:25:01.654Z,9.56
2023-02-23T07:27:23.148Z,9.62
2023-02-23T07:29:44.629Z,9.67
2023-02-23T07:32:06.260Z,9.67
2023-02-23T07:34:27.817Z,9.82
2023-02-23T07:36:49.316Z,9.88
2023-02-23T07:39:10.855Z,9.95
2023-02-23T07:41:32.861Z,9.94
2023-02-23T07:43:54.331Z,10.12
2023-02-23T07:46:16.380Z,10.16
2023-02-23T07:48:40.038Z,10.24
2023-02-23T07:51:01.460Z,10.37
2023-02-23T07:53:23.487Z,10.50
2023-02-23T07:55:45.190Z,10.56
2023-02-23T07:58:07.688Z,10.64
2023-02-23T08:00:29.242Z,10.78
2023-02-23T08:02:53.119Z,10.92
2023-02-23T08:05:14.563Z,10.98
2023-02-23T08:07:36.026Z,10.94
2023-02-23T08:09:57.458Z,11.02
2023-02-23T08:12:19.211Z,11.23
2023-02-23T08:14:40.697Z,11.27
2023-02-23T08:17:02.212Z,11.43
2023-02-23T08:19:23.847Z,11.45
2023-02-23T08:21:45.447Z,11.56
2023-02-23T08:24:07.091Z,11.54
2023-02-23T08:26:28.539Z,11.59
2023-02-23T08:28:49.998Z,11.64
2023-02-23T08:31:13.251Z,11.78
2023-02-23T08:33:34.876Z,11.92
2023-02-23T08:35:59.533Z,12.01
2023-02-23T08:38:21.072Z,12.10
2023-02-23T08:40:43.325Z,12.19
2023-02-23T08:43:04.874Z,12.28
2023-02-23T08:45:29.378Z,12.37
2023-02-23T08:47:51.168Z,12.24
2023-02-23T08:50:14.150Z,12.10
2023-02-23T08:52:35.625Z,11.99
2023-02-23T08:54:57.715Z,11.92
2023-02-23T08:57:19.402Z,11.97
2023-02-23T08:59:41.593Z,12.00
2023-02-23T09:02:03.259Z,11.97
2023-02-23T09:04:24.740Z,11.84
2023-02-23T09:06:47.618Z,11.88
2023-02-23T09:09:09.167Z,12.09
2023-02-23T09:11:30.619Z,12.15
2023-02-23T09:13:52.130Z,12.16
2023-02-23T09:16:13.824Z,12.32
2023-02-23T09:18:35.713Z,12.26
2023-02-23T09:20:57.288Z,12.41
2023-02-23T09:23:18.750Z,12.39
2023-02-23T09:25:43.334Z,12.57
2023-02-23T09:28:04.940Z,12.66
2023-02-23T09:30:27.568Z,12.70
2023-02-23T09:32:53.619Z,12.73
2023-02-23T09:35:17.969Z,12.90
2023-02-23T09:37:39.432Z,13.12
2023-02-23T09:40:00.892Z,13.20
2023-02-23T09:42:44.157Z,13.18
2023-02-23T09:45:20.233Z,13.14
2023-02-23T09:48:09.283Z,13.15
2023-02-23T09:50:34.924Z,13.08
2023-02-23T09:53:03.620Z,13.25
2023-02-23T09:55:26.877Z,13.35
2023-02-23T09:57:50.685Z,13.39
2023-02-23T10:00:18.632Z,13.51
2023-02-23T10:02:53.883Z,13.54
2023-02-23T10:05:16.038Z,13.64
2023-02-23T10:07:47.819Z,13.57
2023-02-23T10:10:21.745Z,13.61
2023-02-23T10:13:10.234Z,13.52
2023-02-23T10:15:50.610Z,13.52
2023-02-23T10:18:22.285Z,13.40
2023-02-23T10:20:50.986Z,13.35
2023-02-23T10:23:16.898Z,13.34
2023-02-23T10:25:43.367Z,13.26
2023-02-23T10:28:04.937Z,13.09
2023-02-23T10:30:29.585Z,13.17
2023-02-23T10:33:10.636Z,13.32
2023-02-23T10:35:33.773Z,13.40
2023-02-23T10:37:56.311Z,13.49
2023-02-23T10:40:23.082Z,13.63
2023-02-23T10:42:44.610Z,13.64
2023-02-23T10:45:22.693Z,13.76
2023-02-23T10:47:45.165Z,13.84
2023-02-23T10:50:09.984Z,13.97
2023-02-23T10:52:43.738Z,14.02
2023-02-23T10:55:08.195Z,14.08
2023-02-23T10:57:33.150Z,14.24
2023-02-23T11:00:32.848Z,14.28
2023-02-23T11:02:55.694Z,14.13
2023-02-23T11:05:34.394Z,14.30
2023-02-23T11:08:21.168Z,14.28
2023-02-23T11:10:42.642Z,14.49
2023-02-23T11:13:04.042Z,14.56
2023-02-23T11:15:39.383Z,14.92
2023-02-23T11:18:21.647Z,15.15
2023-02-23T11:20:43.275Z,15.24
2023-02-23T11:23:22.518Z,15.49
2023-02-23T11:25:46.131Z,15.90
2023-02-23T11:28:20.895Z,16.02
2023-02-23T11:30:42.997Z,15.88
2023-02-23T11:33:12.087Z,15.94
2023-02-23T11:35:33.523Z,15.85
2023-02-23T11:37:55.734Z,15.80
2023-02-23T11:40:27.963Z,15.75
2023-02-23T11:43:06.402Z,15.50
2023-02-23T11:45:33.666Z,15.45
2023-02-23T11:47:58.755Z,15.36
2023-02-23T11:50:22.122Z,15.24
2023-02-23T11:52:44.672Z,15.06
2023-02-23T11:55:08.100Z,14.84
2023-02-23T11:57:33.741Z,14.85
2023-02-23T11:59:59.351Z,14.77
2023-02-23T12:02:30.090Z,14.80
2023-02-23T12:05:06.354Z,14.79
2023-02-23T12:07:41.869Z,14.93
2023-02-23T12:10:16.545Z,14.92
2023-02-23T12:12:51.089Z,14.22
2023-02-23T12:15:24.842Z,13.88
2023-02-23T12:17:53.613Z,13.57
2023-02-23T12:20:21.760Z,13.30
2023-02-23T12:22:47.985Z,13.27
2023-02-23T12:25:35.938Z,13.35
2023-02-23T12:28:18.798Z,13.46
2023-02-23T12:30:46.782Z,13.47
2023-02-23T12:33:18.070Z,13.81
2023-02-23T12:36:11.445Z,14.20
2023-02-23T12:38:56.092Z,14.33
2023-02-23T12:41:30.219Z,14.43
2023-02-23T12:44:02.442Z,14.46
2023-02-23T12:46:48.938Z,14.66
2023-02-23T12:49:27.789Z,14.82
2023-02-23T12:51:58.376Z,14.99
2023-02-23T12:54:20.064Z,14.95
2023-02-23T12:56:58.882Z,14.68
2023-02-23T12:59:26.540Z,14.91
2023-02-23T13:02:04.827Z,14.93
2023-02-23T13:04:49.768Z,15.15
2023-02-23T13:07:36.555Z,15.38
2023-02-23T13:10:23.050Z,15.14
2023-02-23T13:13:11.461Z,15.16
2023-02-23T13:15:45.092Z,14.74
2023-02-23T13:18:23.853Z,14.66
2023-02-23T13:20:51.758Z,14.68
2023-02-23T13:23:37.819Z,14.31
2023-02-23T13:26:10.542Z,14.11
2023-02-23T13:28:56.628Z,13.99
2023-02-23T13:31:30.422Z,13.98
2023-02-23T13:33:54.731Z,14.05
2023-02-23T13:36:17.409Z,13.83
2023-02-23T13:38:46.213Z,13.70
2023-02-23T13:41:17.740Z,13.80
2023-02-23T13:43:53.149Z,13.84
2023-02-23T13:46:45.224Z,13.80
2023-02-23T13:49:31.829Z,13.68
2023-02-23T13:52:00.704Z,13.78
2023-02-23T13:54:25.473Z,13.71
2023-02-23T13:56:54.966Z,13.84
2023-02-23T13:59:22.519Z,13.75
2023-02-23T14:01:47.612Z,13.80
2023-02-23T14:04:22.286Z,13.61
2023-02-23T14:06:56.745Z,13.50
2023-02-23T14:09:24.392Z,13.24
2023-02-23T14:11:56.563Z,12.96
2023-02-23T14:14:33.258Z,12.73
2023-02-23T14:17:14.688Z,12.63
2023-02-23T14:19:38.390Z,12.52
2023-02-23T14:22:05.299Z,12.45
2023-02-23T14:24:27.782Z,12.44
2023-02-23T14:27:06.499Z,12.47
2023-02-23T14:29:31.983Z,12.60
2023-02-23T14:32:13.901Z,12.42
2023-02-23T14:34:59.477Z,12.29
2023-02-23T14:37:25.517Z,12.28
2023-02-23T14:39:50.637Z,12.36
2023-02-23T14:42:22.233Z,12.57
2023-02-23T14:44:51.344Z,12.71
2023-02-23T14:47:16.169Z,12.77
2023-02-23T14:49:43.556Z,12.78
2023-02-23T14:52:14.303Z,12.90
2023-02-23T14:54:38.314Z,12.95
2023-02-23T14:57:03.281Z,13.06
2023-02-23T14:59:35.719Z,13.12
2023-02-23T15:02:00.390Z,13.28
2023-02-23T15:04:27.517Z,13.41
2023-02-23T15:06:49.500Z,13.48
2023-02-23T15:09:18.810Z,13.51
2023-02-23T15:11:43.619Z,13.44
2023-02-23T15:14:07.363Z,13.52
2023-02-23T15:16:37.085Z,13.37
2023-02-23T15:19:32.166Z,13.34
2023-02-23T15:21:56.164Z,13.45
2023-02-23T15:24:24.651Z,13.48
2023-02-23T15:26:46.357Z,13.59
2023-02-23T15:29:10.985Z,13.62
2023-02-23T15:31:32.671Z,13.63
2023-02-23T15:33:55.744Z,13.67
2023-02-23T15:36:34.640Z,13.69
2023-02-23T15:38:59.772Z,13.67
2023-02-23T15:41:28.595Z,13.66
2023-02-23T15:43:50.324Z,13.65
2023-02-23T15:46:24.105Z,13.66
2023-02-23T15:48:49.267Z,13.64
2023-02-23T15:51:22.768Z,13.63
2023-02-23T15:53:44.389Z,13.62
2023-02-23T15:56:30.635Z,13.61
2023-02-23T15:58:57.160Z,13.62
2023-02-23T16:01:25.005Z,13.57
2023-02-23T16:03:57.452Z,13.48
2023-02-23T16:06:25.689Z,13.42
2023-02-23T16:08:58.098Z,13.52
2023-02-23T16:11:20.386Z,13.34
2023-02-23T16:13:46.604Z,13.21
2023-02-23T16:16:11.725Z,12.94
2023-02-23T16:18:41.655Z,12.74
2023-02-23T16:21:04.571Z,12.88
2023-02-23T16:23:34.284Z,12.87
2023-02-23T16:26:01.527Z,12.62
2023-02-23T16:28:24.712Z,12.52
2023-02-23T16:31:03.529Z,12.47
2023-02-23T16:33:30.611Z,12.49
2023-02-23T16:36:08.198Z,12.50
2023-02-23T16:38:42.438Z,12.55
2023-02-23T16:41:05.485Z,12.62
2023-02-23T16:43:27.189Z,12.58
2023-02-23T16:45:48.940Z,12.56
2023-02-23T16:48:14.212Z,12.48
2023-02-23T16:50:40.524Z,12.57
2023-02-23T16:53:03.518Z,12.48
2023-02-23T16:55:28.095Z,12.45
2023-02-23T16:57:51.677Z,12.25
2023-02-23T17:00:18.426Z,12.38
2023-02-23T17:02:39.948Z,12.28
2023-02-23T17:05:01.404Z,12.29
2023-02-23T17:07:24.128Z,12.39
2023-02-23T17:09:45.845Z,12.36
2023-02-23T17:12:12.986Z,12.13
2023-02-23T17:14:34.466Z,11.93
2023-02-23T17:16:56.213Z,11.48
2023-02-23T17:19:19.392Z,11.42
2023-02-23T17:21:40.879Z,11.46
2023-02-23T17:24:03.751Z,11.55
2023-02-23T17:26:26.037Z,11.65
2023-02-23T17:28:47.909Z,11.73
2023-02-23T17:31:10.043Z,11.91
2023-02-23T17:33:33.644Z,11.94
2023-02-23T17:35:55.108Z,11.81
2023-02-23T17:38:21.415Z,11.84
2023-02-23T17:40:44.104Z,11.84
2023-02-23T17:43:09.743Z,11.60
2023-02-23T17:45:31.926Z,11.41
2023-02-23T17:47:53.856Z,11.43
2023-02-23T17:50:15.465Z,11.28
2023-02-23T17:52:37.057Z,11.16
2023-02-23T17:55:00.194Z,11.13
2023-02-23T17:57:22.973Z,11.08
2023-02-23T17:59:44.540Z,10.98
2023-02-23T18:02:07.134Z,10.79
2023-02-23T18:04:28.624Z,10.73
2023-02-23T18:06:50.084Z,10.70
2023-02-23T18:09:14.504Z,10.77
2023-02-23T18:11:35.987Z,10.86
2023-02-23T18:13:57.435Z,11.00
2023-02-23T18:16:20.238Z,11.07
2023-02-23T18:18:45.053Z,11.17
2023-02-23T18:21:12.473Z,11.15
2023-02-23T18:23:33.934Z,11.15
2023-02-23T18:25:55.526Z,11.28
2023-02-23T18:28:18.471Z,11.34
2023-02-23T18:30:41.542Z,11.36
2023-02-23T18:33:04.100Z,11.38
2023-02-23T18:35:25.874Z,11.44
2023-02-23T18:37:47.436Z,11.48
2023-02-23T18:40:21.100Z,11.23
2023-02-23T18:42:42.544Z,11.03
2023-02-23T18:45:04.455Z,11.22
2023-02-23T18:47:25.968Z,11.27
2023-02-23T18:49:47.659Z,11.16
2023-02-23T18:52:11.959Z,11.05
2023-02-23T18:54:33.392Z,11.00
2023-02-23T18:56:55.903Z,10.99
2023-02-23T18:59:17.351Z,10.94
2023-02-23T19:01:39.400Z,10.81
2023-02-23T19:04:02.215Z,10.79
2023-02-23T19:06:24.650Z,10.76
2023-02-23T19:08:54.032Z,10.99
2023-02-23T19:11:15.509Z,11.15
2023-02-23T19:13:40.407Z,11.18
2023-02-23T19:16:07.465Z,11.16
2023-02-23T19:18:28.953Z,11.21
2023-02-23T19:20:55.353Z,11.24
2023-02-23T19:23:16.849Z,11.28
2023-02-23T19:25:38.630Z,11.11
2023-02-23T19:28:00.107Z,11.16
2023-02-23T19:30:21.852Z,11.26
2023-02-23T19:32:43.988Z,11.18
2023-02-23T19:35:08.127Z,11.22
2023-02-23T19:37:29.728Z,11.03
2023-02-23T19:39:51.194Z,10.99
2023-02-23T19:42:18.236Z,11.08
2023-02-23T19:44:39.679Z,11.11
2023-02-23T19:47:01.198Z,10.97
2023-02-23T19:49:23.194Z,10.98
2023-02-23T19:51:44.989Z,11.11
2023-02-23T19:54:07.548Z,11.01
2023-02-23T19:56:29.416Z,11.06
2023-02-23T19:58:51.697Z,11.00
2023-02-23T20:01:16.743Z,11.08
2023-02-23T20:03:43.195Z,11.07
2023-02-23T20:06:06.735Z,11.03
2023-02-23T20:08:28.206Z,10.87
2023-02-23T20:10:50.652Z,10.82
2023-02-23T20:13:12.125Z,10.88
2023-02-23T20:15:33.596Z,10.72
2023-02-23T20:17:55.038Z,10.73
2023-02-23T20:20:16.731Z,10.56
2023-02-23T20:22:41.419Z,10.55
2023-02-23T20:25:05.942Z,10.65
2023-02-23T20:27:30.375Z,10.82
2023-02-23T20:29:53.554Z,10.71
2023-02-23T20:32:15.132Z,10.62
2023-02-23T20:34:39.198Z,10.66
2023-02-23T20:37:00.700Z,10.54
2023-02-23T20:39:24.369Z,10.47
2023-02-23T20:41:47.800Z,10.43
2023-02-23T20:44:10.708Z,10.26
2023-02-23T20:46:32.299Z,10.04
2023-02-23T20:48:54.302Z,10.00
2023-02-23T20:51:18.737Z,9.84
2023-02-23T20:53:41.937Z,9.61
2023-02-23T20:56:05.716Z,9.62
2023-02-23T20:58:28.487Z,9.49
2023-02-23T21:00:50.332Z,9.56
2023-02-23T21:03:11.748Z,9.58
2023-02-23T21:05:38.350Z,9.43
2023-02-23T21:08:03.084Z,9.38
2023-02-23T21:10:24.556Z,9.36
2023-02-23T21:12:46.606Z,9.38
2023-02-23T21:15:09.400Z,9.37
2023-02-23T21:17:30.885Z,9.30
2023-02-23T21:19:52.344Z,9.24
2023-02-23T21:22:16.347Z,9.09
2023-02-23T21:24:40.985Z,8.99
2023-02-23T21:27:05.295Z,8.99
2023-02-23T21:29:27.936Z,8.94
2023-02-23T21:31:49.607Z,9.03
2023-02-23T21:34:11.563Z,9.22
2023-02-23T21:36:34.148Z,9.47
2023-02-23T21:38:55.622Z,9.60
2023-02-23T21:41:17.168Z,9.71
2023-02-23T21:43:41.306Z,9.82
2023-02-23T21:46:11.285Z,9.91
2023-02-23T21:48:32.758Z,9.96
2023-02-23T21:50:54.212Z,9.84
2023-02-23T21:53:15.709Z,9.67
2023-02-23T21:55:38.716Z,9.80
2023-02-23T21:58:00.277Z,9.60
2023-02-23T22:00:22.822Z,9.33
2023-02-23T22:02:46.303Z,9.12
2023-02-23T22:05:09.102Z,9.04
2023-02-23T22:07:32.390Z,9.11
2023-02-23T22:09:53.897Z,9.06
2023-02-23T22:12:15.888Z,9.06
2023-02-23T22:14:37.418Z,8.94
2023-02-23T22:16:59.342Z,9.07
2023-02-23T22:19:21.160Z,9.11
2023-02-23T22:21:43.529Z,9.14
2023-02-23T22:24:06.233Z,9.11
2023-02-23T22:26:30.204Z,8.95
2023-02-23T22:28:51.726Z,8.83
2023-02-23T22:31:14.595Z,8.78
2023-02-23T22:33:38.148Z,8.70
2023-02-23T22:36:03.892Z,8.72
2023-02-23T22:38:25.358Z,8.71
2023-02-23T22:40:47.836Z,8.71
2023-02-23T22:43:10.927Z,8.55
2023-02-23T22:45:32.379Z,8.57
2023-02-23T22:47:55.461Z,8.36
2023-02-23T22:50:19.236Z,8.35
2023-02-23T22:52:43.162Z,8.29
2023-02-23T22:55:05.039Z,8.22
2023-02-23T22:57:26.543Z,8.04
2023-02-23T22:59:54.667Z,7.99
2023-02-23T23:02:16.187Z,8.07
2023-02-23T23:04:37.711Z,8.03
2023-02-23T23:06:59.196Z,8.00
2023-02-23T23:09:21.384Z,8.06
2023-02-23T23:11:43.042Z,7.99
2023-02-23T23:14:07.040Z,8.01
2023-02-23T23:16:33.965Z,8.07
2023-02-23T23:18:56.761Z,8.04
2023-02-23T23:21:22.021Z,8.10
2023-02-23T23:23:45.115Z,8.16
2023-02-23T23:26:07.229Z,8.03
2023-02-23T23:28:28.736Z,8.13
2023-02-23T23:30:52.163Z,7.97
2023-02-23T23:33:13.817Z,7.95
2023-02-23T23:35:35.304Z,7.83
2023-02-23T23:37:56.900Z,7.92
2023-02-23T23:40:24.294Z,7.91
2023-02-23T23:42:46.647Z,7.79
2023-02-23T23:45:09.728Z,7.87
2023-02-23T23:47:31.193Z,7.88
2023-02-23T23:49:53.554Z,7.90
2023-02-23T23:52:17.873Z,7.87
2023-02-23T23:54:40.810Z,7.81
2023-02-23T23:57:02.370Z,7.79
2023-02-23T23:59:26.477Z,7.85
